createdAt,value
2018-08-09T00:00:50.034Z,1.83
2018-08-09T00:03:18.299Z,1.60
2018-08-09T00:05:46.576Z,1.70
2018-08-09T00:08:14.822Z,1.50
2018-08-09T00:10:43.112Z,1.90
2018-08-09T00:13:11.364Z,1.60
2018-08-09T00:15:39.604Z,1.70
2018-08-09T00:18:07.847Z,1.70
2018-08-09T00:20:36.117Z,1.90
2018-08-09T00:23:04.396Z,2.00
2018-08-09T00:25:32.656Z,2.00
2018-08-09T00:28:00.895Z,1.97
2018-08-09T00:30:29.189Z,2.10
2018-08-09T00:32:57.411Z,1.97
2018-08-09T00:35:25.667Z,1.97
2018-08-09T00:37:53.916Z,2.00
2018-08-09T00:40:22.170Z,2.07
2018-08-09T00:42:50.406Z,1.70
2018-08-09T00:45:18.654Z,1.90
2018-08-09T00:48:52.926Z,2.07
2018-08-09T00:51:21.256Z,1.80
2018-08-09T00:53:50.090Z,1.77
2018-08-09T00:56:18.326Z,2.13
2018-08-09T00:58:46.575Z,2.10
2018-08-09T01:01:14.817Z,2.10
2018-08-09T01:03:43.056Z,1.87
2018-08-09T01:06:11.321Z,2.07
2018-08-09T01:08:43.848Z,2.07
2018-08-09T01:11:12.090Z,2.33
2018-08-09T01:13:40.300Z,1.83
2018-08-09T01:16:08.559Z,1.57
2018-08-09T01:18:36.776Z,2.17
2018-08-09T01:21:05.091Z,1.80
2018-08-09T01:23:33.367Z,1.57
2018-08-09T01:26:01.669Z,2.77
2018-08-09T01:28:29.918Z,2.17
2018-08-09T01:30:58.164Z,2.23
2018-08-09T01:33:26.424Z,2.20
2018-08-09T01:35:54.670Z,2.50
2018-08-09T01:38:22.954Z,1.77
2018-08-09T01:40:51.249Z,2.60
2018-08-09T01:43:30.774Z,2.10
2018-08-09T01:45:59.344Z,2.57
2018-08-09T01:48:27.632Z,1.97
2018-08-09T01:50:55.874Z,2.30
2018-08-09T01:53:24.159Z,2.00
2018-08-09T01:55:54.981Z,2.23
2018-08-09T01:58:23.224Z,1.97
2018-08-09T02:00:51.456Z,2.27
2018-08-09T02:03:19.705Z,1.90
2018-08-09T02:05:47.942Z,2.40
2018-08-09T02:08:17.003Z,2.10
2018-08-09T02:10:45.232Z,2.00
2018-08-09T02:13:13.524Z,1.80
2018-08-09T02:15:41.802Z,2.53
2018-08-09T02:18:10.905Z,2.37
2018-08-09T02:20:39.169Z,1.93
2018-08-09T02:23:07.500Z,2.43
2018-08-09T02:25:35.736Z,1.77
2018-08-09T02:28:04.060Z,1.87
2018-08-09T02:30:32.325Z,1.77
2018-08-09T02:33:00.585Z,1.60
2018-08-09T02:35:28.939Z,2.23
2018-08-09T02:37:59.630Z,1.83
2018-08-09T02:40:27.863Z,2.20
2018-08-09T02:42:56.140Z,1.43
2018-08-09T02:45:24.374Z,2.17
2018-08-09T02:47:52.617Z,1.80
2018-08-09T02:50:20.876Z,1.80
2018-08-09T02:52:49.150Z,1.77
2018-08-09T02:55:17.418Z,1.70
2018-08-09T02:57:45.639Z,1.63
2018-08-09T03:00:14.796Z,2.63
2018-08-09T03:02:43.026Z,1.83
2018-08-09T03:05:11.241Z,1.77
2018-08-09T03:07:39.510Z,1.67
2018-08-09T03:10:08.297Z,1.82
2018-08-09T03:12:36.562Z,2.27
2018-08-09T03:15:04.972Z,1.83
2018-08-09T03:17:33.223Z,2.17
2018-08-09T03:20:01.954Z,1.97
2018-08-09T03:22:30.219Z,1.63
2018-08-09T03:24:58.563Z,1.90
2018-08-09T03:27:26.820Z,1.97
2018-08-09T03:29:55.198Z,1.70
2018-08-09T03:32:23.541Z,1.80
2018-08-09T03:34:51.762Z,1.70
2018-08-09T03:37:20.034Z,1.77
2018-08-09T03:39:48.296Z,1.90
2018-08-09T03:42:16.583Z,1.37
2018-08-09T03:44:44.810Z,1.90
2018-08-09T03:47:13.065Z,1.50
2018-08-09T03:49:41.271Z,1.73
2018-08-09T03:52:09.511Z,1.90
2018-08-09T03:54:37.784Z,1.50
2018-08-09T03:57:06.023Z,1.93
2018-08-09T03:59:35.669Z,1.43
2018-08-09T04:02:04.523Z,1.60
2018-08-09T04:04:32.759Z,1.67
2018-08-09T04:07:01.024Z,1.60
2018-08-09T04:09:29.290Z,1.73
2018-08-09T04:11:57.606Z,1.60
2018-08-09T04:14:25.791Z,1.70
2018-08-09T04:16:54.047Z,1.90
2018-08-09T04:19:22.285Z,1.57
2018-08-09T04:21:50.511Z,2.20
2018-08-09T04:24:18.769Z,1.80
2018-08-09T04:26:47.014Z,1.60
2018-08-09T04:29:15.760Z,1.60
2018-08-09T04:31:43.964Z,1.53
2018-08-09T04:34:12.209Z,1.53
2018-08-09T04:36:40.445Z,1.67
2018-08-09T04:39:09.431Z,1.80
2018-08-09T04:41:37.688Z,1.40
2018-08-09T04:44:09.150Z,1.80
2018-08-09T04:46:37.352Z,1.80
2018-08-09T04:49:05.610Z,1.60
2018-08-09T04:51:33.856Z,1.73
2018-08-09T04:54:02.109Z,1.97
2018-08-09T04:56:30.396Z,1.50
2018-08-09T04:58:58.615Z,2.10
2018-08-09T05:01:26.889Z,1.80
2018-08-09T05:03:55.156Z,1.57
2018-08-09T05:06:23.424Z,1.93
2018-08-09T05:08:51.667Z,1.80
2018-08-09T05:11:19.892Z,1.67
2018-08-09T05:13:48.098Z,1.60
2018-08-09T05:16:16.400Z,1.83
2018-08-09T05:18:44.636Z,1.50
2018-08-09T05:21:12.874Z,1.70
2018-08-09T05:23:41.175Z,1.60
2018-08-09T05:26:12.379Z,1.80
2018-08-09T05:28:40.655Z,1.90
2018-08-09T05:31:08.896Z,1.87
2018-08-09T05:33:37.144Z,2.10
2018-08-09T05:36:05.473Z,1.70
2018-08-09T05:38:33.696Z,1.80
2018-08-09T05:41:01.939Z,2.20
2018-08-09T05:43:30.137Z,1.80
2018-08-09T05:45:58.418Z,1.83
2018-08-09T05:48:26.705Z,1.77
2018-08-09T05:50:54.930Z,1.50
2018-08-09T05:53:23.200Z,1.90
2018-08-09T05:55:51.427Z,2.07
2018-08-09T05:58:19.724Z,2.03
2018-08-09T06:00:47.961Z,1.80
2018-08-09T06:03:16.185Z,1.80
2018-08-09T06:05:44.511Z,1.80
2018-08-09T06:08:14.384Z,1.80
2018-08-09T06:10:42.600Z,2.10
2018-08-09T06:13:10.864Z,2.20
2018-08-09T06:15:39.128Z,2.17
2018-08-09T06:18:07.395Z,1.70
2018-08-09T06:20:35.686Z,1.90
2018-08-09T06:23:03.978Z,1.70
2018-08-09T06:25:32.291Z,1.90
2018-08-09T06:28:00.552Z,1.93
2018-08-09T06:30:28.855Z,2.00
2018-08-09T06:32:57.079Z,1.80
2018-08-09T06:35:25.377Z,1.90
2018-08-09T06:37:53.622Z,1.80
2018-08-09T06:40:21.911Z,1.77
2018-08-09T06:42:50.214Z,1.70
2018-08-09T06:45:18.495Z,2.07
2018-08-09T06:47:46.824Z,2.10
2018-08-09T06:50:17.199Z,2.20
2018-08-09T06:52:45.469Z,2.10
2018-08-09T06:55:13.729Z,2.50
2018-08-09T06:57:41.979Z,2.77
2018-08-09T07:00:12.308Z,2.30
2018-08-09T07:02:41.371Z,2.17
2018-08-09T07:05:09.730Z,2.13
2018-08-09T07:07:38.692Z,2.23
2018-08-09T07:10:07.419Z,2.03
2018-08-09T07:12:35.715Z,2.93
2018-08-09T07:15:05.360Z,2.60
2018-08-09T07:17:33.598Z,2.50
2018-08-09T07:20:01.847Z,2.83
2018-08-09T07:22:30.135Z,3.50
2018-08-09T07:24:58.395Z,3.30
2018-08-09T07:27:26.683Z,3.40
2018-08-09T07:29:54.968Z,3.17
2018-08-09T07:32:23.442Z,2.93
2018-08-09T07:34:51.682Z,3.37
2018-08-09T07:37:19.960Z,3.67
2018-08-09T07:39:48.255Z,3.20
2018-08-09T07:42:20.358Z,3.33
2018-08-09T07:44:48.662Z,3.30
2018-08-09T07:47:16.869Z,3.10
2018-08-09T07:49:45.117Z,3.40
2018-08-09T07:52:13.383Z,3.23
2018-08-09T07:54:41.651Z,3.00
2018-08-09T07:57:09.983Z,3.40
2018-08-09T07:59:41.193Z,3.57
2018-08-09T08:02:09.398Z,3.23
2018-08-09T08:04:37.668Z,3.40
2018-08-09T08:07:06.036Z,3.77
2018-08-09T08:09:34.291Z,3.63
2018-08-09T08:12:02.556Z,3.40
2018-08-09T08:14:30.928Z,3.40
2018-08-09T08:16:59.157Z,3.53
2018-08-09T08:19:27.383Z,3.40
2018-08-09T08:21:55.679Z,3.60
2018-08-09T08:24:24.779Z,3.27
2018-08-09T08:26:53.033Z,3.70
2018-08-09T08:29:22.277Z,3.70
2018-08-09T08:31:51.122Z,3.50
2018-08-09T08:34:19.396Z,3.90
2018-08-09T08:38:12.144Z,3.23
2018-08-09T08:40:41.096Z,4.00
2018-08-09T08:43:09.296Z,3.87
2018-08-09T08:45:37.601Z,3.87
2018-08-09T08:48:06.350Z,4.00
2018-08-09T08:50:34.710Z,4.50
2018-08-09T08:53:02.953Z,3.60
2018-08-09T08:55:31.206Z,3.40
2018-08-09T08:57:59.498Z,4.40
2018-08-09T09:00:29.233Z,3.63
2018-08-09T09:02:57.500Z,3.70
2018-08-09T09:05:25.752Z,4.10
2018-08-09T09:07:54.060Z,4.20
2018-08-09T09:10:22.352Z,3.33
2018-08-09T09:12:50.612Z,3.87
2018-08-09T09:15:18.860Z,4.30
2018-08-09T09:17:47.093Z,4.83
2018-08-09T09:20:16.614Z,4.20
2018-08-09T09:22:45.363Z,4.13
2018-08-09T09:25:13.812Z,3.77
2018-08-09T09:27:42.112Z,3.60
2018-08-09T09:30:18.151Z,3.73
2018-08-09T09:32:46.779Z,3.97
2018-08-09T09:35:15.073Z,3.63
2018-08-09T09:37:43.813Z,3.33
2018-08-09T09:40:12.046Z,3.77
2018-08-09T09:42:40.300Z,3.40
2018-08-09T09:45:09.309Z,3.50
2018-08-09T09:47:37.651Z,3.37
2018-08-09T09:50:07.060Z,3.87
2018-08-09T09:52:35.377Z,3.60
2018-08-09T09:55:03.645Z,3.83
2018-08-09T09:57:31.892Z,3.40
2018-08-09T10:00:00.110Z,3.50
2018-08-09T10:02:31.320Z,4.10
2018-08-09T10:04:59.688Z,3.37
2018-08-09T10:07:27.945Z,3.50
2018-08-09T10:09:56.131Z,3.80
2018-08-09T10:12:24.384Z,3.17
2018-08-09T10:14:52.714Z,3.40
2018-08-09T10:17:20.912Z,3.37
2018-08-09T10:19:49.140Z,4.43
2018-08-09T10:22:17.392Z,3.47
2018-08-09T10:24:45.680Z,4.13
2018-08-09T10:27:13.914Z,3.80
2018-08-09T10:29:42.832Z,3.97
2018-08-09T10:32:11.072Z,3.43
2018-08-09T10:34:39.340Z,3.73
2018-08-09T10:37:07.634Z,3.33
2018-08-09T10:39:35.867Z,3.60
2018-08-09T10:42:04.154Z,3.60
2018-08-09T10:44:33.256Z,4.20
2018-08-09T10:47:01.571Z,4.33
2018-08-09T10:49:29.843Z,3.93
2018-08-09T10:51:58.091Z,4.03
2018-08-09T10:54:26.328Z,4.00
2018-08-09T10:56:54.658Z,4.00
2018-08-09T10:59:24.486Z,4.20
2018-08-09T11:01:52.807Z,3.60
2018-08-09T11:04:21.038Z,3.77
2018-08-09T11:06:49.332Z,3.97
2018-08-09T11:09:17.636Z,3.73
2018-08-09T11:11:45.945Z,3.60
2018-08-09T11:14:14.159Z,3.80
2018-08-09T11:16:42.434Z,3.90
2018-08-09T11:19:10.759Z,3.70
2018-08-09T11:21:39.008Z,3.20
2018-08-09T11:24:07.326Z,3.70
2018-08-09T11:26:37.574Z,4.07
2018-08-09T11:29:05.932Z,3.60
2018-08-09T11:31:34.211Z,3.10
2018-08-09T11:34:02.859Z,3.60
2018-08-09T11:36:31.039Z,3.40
2018-08-09T11:38:59.376Z,2.70
2018-08-09T11:41:27.621Z,3.40
2018-08-09T11:43:55.868Z,3.13
2018-08-09T11:46:24.131Z,3.20
2018-08-09T11:48:52.411Z,3.40
2018-08-09T11:51:20.678Z,3.43
2018-08-09T11:53:48.971Z,3.13
2018-08-09T11:56:17.279Z,3.27
2018-08-09T11:58:45.460Z,3.50
2018-08-09T12:01:13.796Z,3.47
2018-08-09T12:03:42.027Z,3.47
2018-08-09T12:06:10.367Z,3.57
2018-08-09T12:08:40.221Z,3.40
2018-08-09T12:11:15.185Z,3.33
2018-08-09T12:13:43.467Z,3.20
2018-08-09T12:16:11.706Z,3.30
2018-08-09T12:18:41.297Z,3.07
2018-08-09T12:21:09.567Z,3.50
2018-08-09T12:23:37.892Z,3.40
2018-08-09T12:26:06.135Z,3.40
2018-08-09T12:28:34.415Z,3.53
2018-08-09T12:33:37.225Z,3.27
2018-08-09T12:36:05.653Z,3.40
2018-08-09T12:38:33.974Z,3.30
2018-08-09T12:41:02.335Z,4.23
2018-08-09T12:43:30.606Z,3.20
2018-08-09T12:45:58.920Z,3.40
2018-08-09T12:48:27.151Z,4.03
2018-08-09T12:50:55.445Z,3.97
2018-08-09T12:53:23.692Z,3.50
2018-08-09T12:55:51.970Z,3.70
2018-08-09T12:58:20.245Z,3.70
2018-08-09T13:00:49.695Z,3.07
2018-08-09T13:03:17.965Z,2.80
2018-08-09T13:05:46.310Z,2.40
2018-08-09T13:08:14.533Z,2.30
2018-08-09T13:10:47.024Z,2.10
2018-08-09T13:13:15.388Z,1.67
2018-08-09T13:15:43.579Z,2.10
2018-08-09T13:18:11.874Z,2.13
2018-08-09T13:20:40.176Z,2.20
2018-08-09T13:23:08.531Z,2.30
2018-08-09T13:25:36.754Z,2.67
2018-08-09T13:28:04.999Z,2.93
2018-08-09T13:30:33.286Z,2.47
2018-08-09T13:33:01.627Z,2.50
2018-08-09T13:35:30.038Z,2.20
2018-08-09T13:37:58.277Z,2.20
2018-08-09T13:40:26.573Z,2.43
2018-08-09T13:42:54.884Z,2.27
2018-08-09T13:45:23.161Z,2.17
2018-08-09T13:47:51.398Z,2.00
2018-08-09T13:50:19.676Z,2.17
2018-08-09T13:52:51.322Z,1.87
2018-08-09T13:55:19.572Z,2.13
2018-08-09T13:57:47.825Z,1.90
2018-08-09T14:00:16.079Z,2.20
2018-08-09T14:02:45.397Z,2.47
2018-08-09T14:05:13.646Z,2.20
2018-08-09T14:07:42.951Z,1.90
2018-08-09T14:10:11.834Z,2.03
2018-08-09T14:12:40.852Z,2.17
2018-08-09T14:15:10.109Z,2.50
2018-08-09T14:17:38.748Z,2.33
2018-08-09T14:20:08.979Z,2.80
2018-08-09T14:22:37.210Z,2.50
2018-08-09T14:25:05.733Z,2.30
2018-08-09T14:27:34.143Z,2.20
2018-08-09T14:30:02.424Z,3.07
2018-08-09T14:32:30.743Z,1.90
2018-08-09T14:34:59.051Z,2.50
2018-08-09T14:37:27.360Z,2.40
2018-08-09T14:39:55.621Z,2.27
2018-08-09T14:42:23.926Z,2.10
2018-08-09T14:44:55.465Z,2.30
2018-08-09T14:47:23.690Z,3.07
2018-08-09T14:49:51.981Z,2.23
2018-08-09T14:52:20.273Z,2.70
2018-08-09T14:54:48.523Z,2.13
2018-08-09T14:57:16.765Z,2.33
2018-08-09T14:59:47.836Z,2.20
2018-08-09T15:02:16.686Z,2.57
2018-08-09T15:04:44.940Z,2.07
2018-08-09T15:07:13.247Z,2.20
2018-08-09T15:09:41.555Z,2.10
2018-08-09T15:12:09.783Z,2.20
2018-08-09T15:14:38.089Z,2.20
2018-08-09T15:17:06.341Z,2.13
2018-08-09T15:19:34.610Z,2.27
2018-08-09T15:22:02.847Z,2.30
2018-08-09T15:24:31.472Z,2.40
2018-08-09T15:27:02.140Z,2.30
2018-08-09T15:29:32.001Z,2.50
2018-08-09T15:32:00.363Z,2.40
2018-08-09T15:34:28.651Z,2.50
2018-08-09T15:36:59.335Z,2.67
2018-08-09T15:39:28.207Z,2.17
2018-08-09T15:41:56.458Z,2.33
2018-08-09T15:44:24.704Z,2.40
2018-08-09T15:46:52.995Z,1.70
2018-08-09T15:49:21.215Z,1.93
2018-08-09T15:51:49.467Z,2.10
2018-08-09T15:54:17.764Z,2.17
2018-08-09T15:56:46.053Z,2.40
2018-08-09T15:59:14.662Z,2.10
2018-08-09T16:01:42.975Z,2.00
2018-08-09T16:04:11.270Z,2.20
2018-08-09T16:06:39.524Z,2.67
2018-08-09T16:09:11.088Z,2.57
2018-08-09T16:11:39.410Z,2.47
2018-08-09T16:14:07.736Z,1.93
2018-08-09T16:16:36.004Z,2.03
2018-08-09T16:19:05.885Z,2.47
2018-08-09T16:21:34.180Z,2.07
2018-08-09T16:24:02.535Z,2.30
2018-08-09T16:26:30.764Z,2.10
2018-08-09T16:28:59.040Z,2.00
2018-08-09T16:31:27.321Z,2.50
2018-08-09T16:33:55.580Z,2.07
2018-08-09T16:36:23.853Z,2.40
2018-08-09T16:38:52.172Z,2.43
2018-08-09T16:41:21.392Z,2.30
2018-08-09T16:43:49.671Z,2.40
2018-08-09T16:46:17.988Z,2.13
2018-08-09T16:48:46.256Z,1.77
2018-08-09T16:51:14.486Z,2.13
2018-08-09T16:53:42.702Z,1.97
2018-08-09T16:56:10.951Z,1.80
2018-08-09T16:58:39.283Z,1.70
2018-08-09T17:01:09.542Z,1.83
2018-08-09T17:03:37.803Z,1.97
2018-08-09T17:06:06.031Z,1.87
2018-08-09T17:08:34.307Z,2.00
2018-08-09T17:11:02.551Z,1.83
2018-08-09T17:13:30.865Z,1.80
2018-08-09T17:15:59.119Z,2.20
2018-08-09T17:18:27.396Z,1.90
2018-08-09T17:20:55.688Z,1.73
2018-08-09T17:23:23.948Z,1.93
2018-08-09T17:25:52.205Z,1.97
2018-08-09T17:28:20.511Z,1.90
2018-08-09T17:30:48.873Z,2.20
2018-08-09T17:33:17.143Z,2.07
2018-08-09T17:35:45.460Z,1.90
2018-08-09T17:38:13.743Z,1.77
2018-08-09T17:40:41.980Z,2.00
2018-08-09T17:43:12.513Z,1.60
2018-08-09T17:45:40.748Z,1.70
2018-08-09T17:48:08.989Z,1.80
2018-08-09T17:50:37.234Z,2.00
2018-08-09T17:53:09.830Z,1.63
2018-08-09T17:55:39.407Z,1.70
2018-08-09T17:58:07.684Z,1.63
2018-08-09T18:00:36.407Z,1.70
2018-08-09T18:03:05.207Z,2.20
2018-08-09T18:05:33.489Z,1.80
2018-08-09T18:08:01.773Z,1.30
2018-08-09T18:10:31.995Z,1.50
2018-08-09T18:13:00.297Z,1.50
2018-08-09T18:15:29.473Z,1.03
2018-08-09T18:17:58.384Z,1.20
2018-08-09T18:20:29.494Z,1.50
2018-08-09T18:22:57.767Z,0.70
2018-08-09T18:25:26.085Z,0.80
2018-08-09T18:27:54.344Z,0.70
2018-08-09T18:30:22.747Z,0.87
2018-08-09T18:32:51.141Z,0.60
2018-08-09T18:35:20.017Z,0.93
2018-08-09T18:37:48.283Z,0.70
2018-08-09T18:40:18.328Z,0.70
2018-08-09T18:42:46.675Z,0.40
2018-08-09T18:45:17.231Z,0.43
2018-08-09T18:47:45.628Z,0.60
2018-08-09T18:50:17.367Z,0.83
2018-08-09T18:52:45.676Z,0.50
2018-08-09T18:55:18.098Z,0.70
2018-08-09T18:57:46.415Z,0.90
2018-08-09T19:00:17.875Z,0.50
2018-08-09T19:02:46.740Z,0.60
2018-08-09T19:05:18.732Z,0.60
2018-08-09T19:07:47.056Z,0.70
2018-08-09T19:10:17.657Z,0.50
2018-08-09T19:12:45.981Z,0.77
2018-08-09T19:15:17.990Z,0.50
2018-08-09T19:17:46.261Z,0.83
2018-08-09T19:20:25.988Z,0.50
2018-08-09T19:22:54.404Z,0.60
2018-08-09T19:25:22.664Z,0.83
2018-08-09T19:27:50.975Z,0.73
2018-08-09T19:30:20.978Z,0.67
2018-08-09T19:32:49.228Z,0.70
2018-08-09T19:35:21.812Z,0.87
2018-08-09T19:37:50.146Z,0.60
2018-08-09T19:40:21.051Z,0.60
2018-08-09T19:42:49.379Z,0.50
2018-08-09T19:45:22.063Z,0.83
2018-08-09T19:47:50.358Z,0.70
2018-08-09T19:50:20.252Z,0.70
2018-08-09T19:52:48.503Z,0.70
2018-08-09T19:55:21.652Z,0.80
2018-08-09T19:57:50.436Z,0.80
2018-08-09T20:00:21.190Z,0.57
2018-08-09T20:02:49.808Z,0.50
2018-08-09T20:05:21.396Z,0.70
2018-08-09T20:07:50.840Z,0.60
2018-08-09T20:10:19.060Z,0.70
2018-08-09T20:12:48.076Z,0.77
2018-08-09T20:15:18.363Z,0.70
2018-08-09T20:17:46.648Z,0.60
2018-08-09T20:20:15.820Z,0.60
2018-08-09T20:22:44.262Z,0.87
2018-08-09T20:25:13.193Z,0.50
2018-08-09T20:27:42.007Z,0.53
2018-08-09T20:30:11.796Z,0.83
2018-08-09T20:32:40.582Z,0.70
2018-08-09T20:35:11.732Z,0.77
2018-08-09T20:37:40.112Z,0.60
2018-08-09T20:40:09.492Z,0.62
2018-08-09T20:42:38.112Z,0.70
2018-08-09T20:45:07.899Z,0.70
2018-08-09T20:47:36.383Z,0.73
2018-08-09T20:50:06.819Z,0.60
2018-08-09T20:52:35.156Z,0.73
2018-08-09T20:55:03.569Z,0.70
2018-08-09T20:57:31.835Z,1.00
2018-08-09T21:00:00.068Z,0.70
2018-08-09T21:02:28.323Z,0.60
2018-08-09T21:04:56.578Z,0.67
2018-08-09T21:07:28.323Z,0.70
2018-08-09T21:09:56.646Z,0.60
2018-08-09T21:12:24.870Z,0.50
2018-08-09T21:14:53.161Z,0.60
2018-08-09T21:17:21.407Z,0.70
2018-08-09T21:19:49.711Z,0.77
2018-08-09T21:22:17.954Z,0.47
2018-08-09T21:24:46.236Z,0.60
2018-08-09T21:27:14.510Z,0.60
2018-08-09T21:29:43.004Z,0.40
2018-08-09T21:32:11.261Z,0.50
2018-08-09T21:34:39.529Z,0.50
2018-08-09T21:37:07.752Z,0.40
2018-08-09T21:39:36.024Z,0.30
2018-08-09T21:42:04.238Z,0.40
2018-08-09T21:44:32.478Z,0.40
2018-08-09T21:47:00.712Z,0.30
2018-08-09T21:49:32.312Z,0.40
2018-08-09T21:52:00.565Z,0.20
2018-08-09T21:54:28.810Z,0.30
2018-08-09T21:56:57.104Z,0.30
2018-08-09T21:59:36.517Z,0.20
2018-08-09T22:02:04.835Z,0.40
2018-08-09T22:04:39.940Z,0.20
2018-08-09T22:07:13.651Z,0.30
2018-08-09T22:09:47.195Z,0.30
2018-08-09T22:12:20.793Z,0.30
2018-08-09T22:14:54.473Z,0.30
2018-08-09T22:17:28.010Z,0.47
2018-08-09T22:20:01.739Z,0.30
2018-08-09T22:22:30.155Z,0.37
2018-08-09T22:24:58.416Z,0.50
2018-08-09T22:27:26.695Z,0.30
2018-08-09T22:29:55.078Z,0.30
2018-08-09T22:32:23.327Z,0.37
2018-08-09T22:34:51.584Z,0.40
2018-08-09T22:37:19.871Z,0.40
2018-08-09T22:39:48.148Z,0.50
2018-08-09T22:42:16.435Z,0.50
2018-08-09T22:44:44.762Z,0.30
2018-08-09T22:47:13.009Z,0.37
2018-08-09T22:49:41.296Z,0.40
2018-08-09T22:52:09.533Z,0.60
2018-08-09T22:54:37.834Z,0.40
2018-08-09T22:57:06.104Z,0.40
2018-08-09T22:59:38.718Z,0.40
2018-08-09T23:02:07.004Z,0.40
2018-08-09T23:04:35.302Z,0.40
2018-08-09T23:07:03.532Z,0.53
2018-08-09T23:09:31.836Z,0.33
2018-08-09T23:12:00.095Z,0.40
2018-08-09T23:14:28.504Z,0.40
2018-08-09T23:16:56.736Z,0.30
2018-08-09T23:19:25.043Z,0.50
2018-08-09T23:21:53.337Z,0.40
2018-08-09T23:24:21.602Z,0.50
2018-08-09T23:26:49.949Z,0.40
2018-08-09T23:29:18.215Z,0.50
2018-08-09T23:31:46.507Z,0.60
2018-08-09T23:34:14.734Z,0.50
2018-08-09T23:36:43.003Z,0.57
2018-08-09T23:39:12.802Z,0.60
2018-08-09T23:41:45.392Z,0.60
2018-08-09T23:44:13.670Z,0.60
2018-08-09T23:46:41.959Z,0.50
2018-08-09T23:49:10.226Z,0.60
2018-08-09T23:51:42.076Z,0.47
2018-08-09T23:54:10.291Z,0.40
2018-08-09T23:56:38.527Z,0.50
2018-08-09T23:59:06.827Z,0.70
